createdAt,value
2018-04-14T00:01:10.790Z,56.86
2018-04-14T00:03:37.220Z,57.18
2018-04-14T00:06:03.652Z,57.09
2018-04-14T00:08:30.162Z,57.21
2018-04-14T00:10:56.658Z,57.27
2018-04-14T00:13:23.132Z,57.43
2018-04-14T00:15:49.685Z,57.47
2018-04-14T00:18:16.210Z,57.55
2018-04-14T00:20:42.765Z,57.54
2018-04-14T00:23:09.288Z,57.64
2018-04-14T00:25:35.799Z,57.71
2018-04-14T00:28:02.476Z,57.92
2018-04-14T00:30:28.888Z,58.10
2018-04-14T00:32:55.400Z,58.42
2018-04-14T00:35:21.888Z,58.40
2018-04-14T00:37:48.377Z,58.22
2018-04-14T00:40:14.792Z,58.01
2018-04-14T00:42:41.249Z,57.87
2018-04-14T00:45:07.793Z,57.80
2018-04-14T00:47:34.223Z,57.91
2018-04-14T00:50:00.620Z,58.05
2018-04-14T00:52:27.083Z,58.28
2018-04-14T00:54:53.608Z,58.45
2018-04-14T00:57:20.109Z,58.76
2018-04-14T00:59:46.602Z,59.03
2018-04-14T01:02:13.052Z,59.19
2018-04-14T01:04:39.519Z,59.12
2018-04-14T01:07:05.964Z,59.34
2018-04-14T01:09:32.506Z,59.49
2018-04-14T01:11:58.980Z,59.64
2018-04-14T01:14:25.384Z,59.51
2018-04-14T01:16:51.887Z,59.66
2018-04-14T01:19:18.477Z,59.96
2018-04-14T01:21:45.090Z,60.06
2018-04-14T01:24:11.563Z,60.44
2018-04-14T01:26:37.977Z,60.55
2018-04-14T01:29:04.476Z,60.46
2018-04-14T01:31:30.988Z,60.58
2018-04-14T01:33:57.432Z,60.79
2018-04-14T01:36:23.892Z,61.01
2018-04-14T01:38:50.364Z,61.26
2018-04-14T01:41:16.833Z,61.38
2018-04-14T01:43:43.258Z,61.48
2018-04-14T01:46:09.711Z,61.88
2018-04-14T01:48:36.261Z,61.90
2018-04-14T01:51:02.812Z,62.10
2018-04-14T01:53:29.264Z,61.88
2018-04-14T01:55:55.720Z,61.97
2018-04-14T01:58:22.149Z,62.01
2018-04-14T02:00:48.566Z,62.06
2018-04-14T02:03:15.126Z,62.07
2018-04-14T02:05:41.616Z,62.37
2018-04-14T02:08:08.188Z,62.39
2018-04-14T02:10:34.620Z,62.57
2018-04-14T02:13:01.080Z,62.54
2018-04-14T02:15:27.624Z,62.51
2018-04-14T02:17:54.084Z,62.52
2018-04-14T02:20:20.598Z,62.50
2018-04-14T02:22:47.072Z,62.34
2018-04-14T02:25:13.561Z,62.40
2018-04-14T02:27:40.120Z,62.12
2018-04-14T02:30:06.508Z,62.11
2018-04-14T02:32:32.956Z,62.19
2018-04-14T02:34:59.366Z,62.37
2018-04-14T02:37:25.824Z,62.38
2018-04-14T02:39:52.181Z,62.31
2018-04-14T02:42:18.622Z,62.73
2018-04-14T02:44:45.127Z,62.81
2018-04-14T02:47:11.569Z,63.14
2018-04-14T02:49:38.023Z,63.23
2018-04-14T02:52:04.451Z,63.33
2018-04-14T02:54:31.093Z,63.53
2018-04-14T02:56:57.522Z,63.61
2018-04-14T02:59:23.966Z,63.76
2018-04-14T03:01:50.397Z,63.78
2018-04-14T03:04:16.878Z,63.67
2018-04-14T03:06:43.352Z,63.71
2018-04-14T03:09:09.838Z,63.67
2018-04-14T03:11:36.304Z,63.79
2018-04-14T03:14:02.805Z,63.79
2018-04-14T03:16:29.268Z,63.84
2018-04-14T03:18:55.731Z,63.83
2018-04-14T03:21:22.209Z,63.93
2018-04-14T03:23:48.705Z,63.97
2018-04-14T03:26:15.202Z,64.02
2018-04-14T03:28:41.757Z,64.27
2018-04-14T03:31:08.194Z,64.30
2018-04-14T03:33:34.663Z,64.59
2018-04-14T03:36:01.200Z,64.77
2018-04-14T03:38:27.574Z,64.35
2018-04-14T03:40:53.959Z,64.47
2018-04-14T03:43:20.447Z,64.54
2018-04-14T03:45:46.892Z,64.63
2018-04-14T03:48:13.296Z,64.66
2018-04-14T03:50:39.825Z,64.77
2018-04-14T03:53:06.361Z,64.66
2018-04-14T03:55:32.806Z,64.85
2018-04-14T03:57:59.233Z,65.00
2018-04-14T04:00:25.732Z,65.09
2018-04-14T04:02:52.179Z,65.01
2018-04-14T04:05:18.656Z,64.86
2018-04-14T04:07:45.155Z,64.85
2018-04-14T04:10:11.741Z,64.92
2018-04-14T04:12:38.207Z,64.88
2018-04-14T04:15:04.704Z,64.55
2018-04-14T04:17:31.151Z,64.66
2018-04-14T04:20:09.597Z,64.29
2018-04-14T04:22:48.003Z,64.66
2018-04-14T04:25:38.263Z,64.79
2018-04-14T04:28:04.758Z,64.35
2018-04-14T04:30:31.148Z,64.41
2018-04-14T04:32:57.627Z,64.64
2018-04-14T04:35:23.874Z,64.49
2018-04-14T04:37:50.220Z,64.44
2018-04-14T04:40:16.626Z,64.15
2018-04-14T04:42:42.915Z,64.64
2018-04-14T04:45:09.256Z,64.57
2018-04-14T04:47:35.494Z,64.71
2018-04-14T04:50:01.892Z,64.52
2018-04-14T04:52:28.262Z,64.38
2018-04-14T04:54:54.588Z,64.59
2018-04-14T04:57:20.864Z,64.76
2018-04-14T04:59:47.185Z,64.57
2018-04-14T05:02:13.534Z,64.60
2018-04-14T05:04:39.917Z,64.40
2018-04-14T05:07:06.317Z,64.39
2018-04-14T05:09:32.615Z,63.83
2018-04-14T05:11:59.084Z,62.89
2018-04-14T05:14:25.428Z,62.49
2018-04-14T05:16:51.920Z,62.55
2018-04-14T05:19:18.332Z,62.63
2018-04-14T05:21:44.631Z,62.71
2018-04-14T05:24:11.039Z,62.28
2018-04-14T05:26:37.461Z,62.12
2018-04-14T05:29:03.776Z,62.19
2018-04-14T05:31:30.306Z,62.12
2018-04-14T05:33:56.719Z,62.08
2018-04-14T05:36:23.136Z,61.46
2018-04-14T05:38:49.417Z,61.31
2018-04-14T05:41:15.707Z,61.32
2018-04-14T05:43:42.077Z,61.64
2018-04-14T05:46:08.321Z,61.34
2018-04-14T05:48:34.915Z,60.81
2018-04-14T05:51:01.172Z,60.61
2018-04-14T05:56:00.397Z,60.26
2018-04-14T05:58:26.753Z,60.23
2018-04-14T06:00:53.031Z,60.28
2018-04-14T06:03:19.461Z,61.21
2018-04-14T06:05:45.746Z,61.37
2018-04-14T06:08:12.136Z,62.00
2018-04-14T06:10:38.497Z,62.87
2018-04-14T06:13:04.761Z,63.47
2018-04-14T06:15:31.101Z,63.21
2018-04-14T06:20:23.725Z,62.82
2018-04-14T06:22:49.995Z,62.71
2018-04-14T06:27:49.352Z,62.42
2018-04-14T06:30:15.697Z,62.32
2018-04-14T06:32:42.042Z,62.25
2018-04-14T06:35:08.471Z,61.66
2018-04-14T06:37:34.798Z,60.90
2018-04-14T06:40:01.143Z,60.34
2018-04-14T06:42:27.679Z,59.73
2018-04-14T06:44:54.117Z,58.96
2018-04-14T06:47:20.472Z,58.40
2018-04-14T06:49:46.784Z,57.76
2018-04-14T06:52:13.219Z,57.38
2018-04-14T06:54:39.502Z,57.21
2018-04-14T06:57:05.800Z,57.02
2018-04-14T06:59:32.149Z,56.86
2018-04-14T07:01:58.503Z,56.30
2018-04-14T07:04:24.876Z,56.09
2018-04-14T07:06:51.297Z,55.79
2018-04-14T07:09:17.605Z,57.28
2018-04-14T07:11:43.949Z,57.07
2018-04-14T07:14:10.287Z,57.37
2018-04-14T07:16:36.583Z,57.27
2018-04-14T07:19:03.252Z,56.88
2018-04-14T07:21:29.833Z,56.87
2018-04-14T07:23:56.196Z,56.86
2018-04-14T07:26:22.524Z,56.28
2018-04-14T07:28:48.812Z,55.51
2018-04-14T07:31:15.178Z,55.52
2018-04-14T07:33:41.450Z,55.42
2018-04-14T07:36:07.780Z,55.35
2018-04-14T07:38:34.061Z,55.17
2018-04-14T07:41:00.457Z,55.54
2018-04-14T07:43:26.825Z,55.57
2018-04-14T07:45:53.107Z,55.60
2018-04-14T07:48:19.373Z,55.69
2018-04-14T07:50:45.660Z,55.72
2018-04-14T07:53:11.957Z,55.71
2018-04-14T07:55:38.284Z,54.93
2018-04-14T07:58:04.667Z,55.00
2018-04-14T08:00:31.036Z,54.48
2018-04-14T08:02:57.476Z,54.41
2018-04-14T08:05:23.789Z,54.48
2018-04-14T08:07:50.095Z,53.95
2018-04-14T08:10:16.467Z,54.62
2018-04-14T08:12:42.847Z,54.10
2018-04-14T08:15:15.995Z,54.04
2018-04-14T08:17:42.337Z,54.49
2018-04-14T08:20:08.664Z,53.19
2018-04-14T08:22:34.968Z,53.12
2018-04-14T08:25:01.251Z,53.30
2018-04-14T08:27:27.568Z,52.91
2018-04-14T08:29:53.879Z,53.42
2018-04-14T08:32:20.209Z,53.73
2018-04-14T08:34:46.523Z,53.64
2018-04-14T08:37:12.921Z,53.47
2018-04-14T08:39:39.295Z,52.83
2018-04-14T08:42:05.599Z,52.68
2018-04-14T08:44:31.892Z,51.98
2018-04-14T08:46:58.235Z,51.90
2018-04-14T08:49:24.496Z,51.17
2018-04-14T08:51:50.816Z,50.46
2018-04-14T08:54:17.124Z,50.55
2018-04-14T08:56:43.521Z,50.50
2018-04-14T08:59:09.783Z,50.17
2018-04-14T09:01:36.101Z,50.49
2018-04-14T09:04:02.412Z,49.96
2018-04-14T09:06:28.829Z,49.57
2018-04-14T09:08:55.167Z,49.55
2018-04-14T09:11:21.441Z,49.67
2018-04-14T09:13:47.841Z,49.74
2018-04-14T09:16:14.176Z,49.73
2018-04-14T09:18:40.662Z,49.29
2018-04-14T09:21:07.019Z,48.70
2018-04-14T09:23:33.405Z,49.09
2018-04-14T09:25:59.787Z,49.05
2018-04-14T09:28:26.356Z,48.80
2018-04-14T09:30:52.723Z,48.46
2018-04-14T09:33:19.228Z,48.48
2018-04-14T09:35:45.645Z,47.62
2018-04-14T09:38:12.072Z,47.91
2018-04-14T09:40:38.568Z,48.01
2018-04-14T09:43:05.003Z,47.65
2018-04-14T09:45:31.452Z,47.59
2018-04-14T09:47:57.964Z,47.37
2018-04-14T09:50:24.404Z,47.52
2018-04-14T09:52:50.873Z,46.77
2018-04-14T09:55:17.352Z,47.42
2018-04-14T09:57:43.877Z,47.88
2018-04-14T10:00:10.397Z,47.48
2018-04-14T10:02:42.778Z,46.91
2018-04-14T10:05:09.168Z,46.42
2018-04-14T10:07:35.566Z,46.59
2018-04-14T10:10:01.967Z,47.02
2018-04-14T10:12:28.480Z,46.29
2018-04-14T10:14:54.973Z,46.26
2018-04-14T10:17:21.454Z,45.97
2018-04-14T10:19:47.836Z,46.12
2018-04-14T10:22:14.187Z,45.99
2018-04-14T10:24:40.684Z,44.94
2018-04-14T10:27:07.139Z,45.22
2018-04-14T10:29:33.593Z,44.21
2018-04-14T10:32:00.024Z,45.00
2018-04-14T10:34:33.478Z,44.67
2018-04-14T10:36:59.815Z,44.10
2018-04-14T10:39:26.178Z,43.59
2018-04-14T10:41:52.637Z,40.50
2018-04-14T10:44:19.064Z,43.36
2018-04-14T10:46:45.523Z,43.00
2018-04-14T10:49:12.028Z,42.96
2018-04-14T10:51:38.412Z,42.80
2018-04-14T10:54:04.780Z,41.70
2018-04-14T10:56:31.289Z,41.42
2018-04-14T10:58:57.683Z,39.90
2018-04-14T11:01:24.101Z,41.54
2018-04-14T11:03:50.632Z,42.32
2018-04-14T11:06:17.183Z,42.37
2018-04-14T11:08:43.578Z,40.90
2018-04-14T11:11:10.066Z,41.37
2018-04-14T11:13:36.440Z,41.36
2018-04-14T11:16:02.847Z,41.27
2018-04-14T11:18:29.333Z,40.24
2018-04-14T11:20:55.733Z,40.17
2018-04-14T11:23:22.186Z,38.70
2018-04-14T11:25:48.618Z,37.72
2018-04-14T11:28:15.060Z,38.41
2018-04-14T11:30:41.488Z,37.74
2018-04-14T11:33:07.991Z,38.04
2018-04-14T11:35:34.457Z,36.90
2018-04-14T11:38:00.886Z,37.14
2018-04-14T11:40:27.344Z,35.71
2018-04-14T11:42:53.764Z,34.41
2018-04-14T11:45:20.245Z,34.80
2018-04-14T11:47:46.696Z,34.77
2018-04-14T11:50:13.059Z,33.32
2018-04-14T11:52:39.491Z,33.13
2018-04-14T11:55:05.952Z,32.82
2018-04-14T11:57:32.467Z,31.79
2018-04-14T11:59:58.874Z,30.70
2018-04-14T12:02:25.396Z,29.33
2018-04-14T12:04:51.828Z,28.64
2018-04-14T12:07:18.361Z,27.53
2018-04-14T12:11:17.304Z,30.04
2018-04-14T12:13:43.831Z,32.19
2018-04-14T12:16:10.301Z,32.77
2018-04-14T12:18:36.905Z,32.57
2018-04-14T12:21:03.362Z,32.81
2018-04-14T12:23:29.813Z,32.80
2018-04-14T12:25:56.290Z,32.15
2018-04-14T12:28:22.761Z,33.66
2018-04-14T12:30:49.213Z,33.57
2018-04-14T12:33:15.626Z,33.80
2018-04-14T12:35:42.132Z,33.57
2018-04-14T12:38:08.524Z,34.41
2018-04-14T12:40:34.970Z,33.89
2018-04-14T12:43:02.114Z,33.79
2018-04-14T12:45:28.576Z,34.36
2018-04-14T12:47:54.988Z,34.21
2018-04-14T12:50:21.372Z,34.44
2018-04-14T12:52:47.795Z,34.98
2018-04-14T12:55:14.186Z,35.56
2018-04-14T12:57:40.631Z,35.93
2018-04-14T13:00:07.221Z,36.39
2018-04-14T13:02:33.717Z,37.44
2018-04-14T13:05:00.328Z,38.61
2018-04-14T13:07:26.780Z,37.82
2018-04-14T13:12:47.413Z,39.06
2018-04-14T13:15:13.848Z,39.72
2018-04-14T13:17:40.291Z,41.00
2018-04-14T13:20:06.640Z,41.25
2018-04-14T13:22:33.024Z,40.65
2018-04-14T13:24:59.573Z,39.77
2018-04-14T13:27:25.970Z,39.34
2018-04-14T13:29:52.525Z,39.66
2018-04-14T13:32:19.163Z,40.97
2018-04-14T13:34:45.834Z,40.00
2018-04-14T13:37:12.524Z,40.47
2018-04-14T13:39:39.076Z,39.82
2018-04-14T13:42:05.769Z,40.37
2018-04-14T13:44:32.244Z,40.50
2018-04-14T13:46:58.616Z,40.70
2018-04-14T13:49:25.080Z,41.13
2018-04-14T13:51:51.720Z,41.14
2018-04-14T13:54:18.234Z,42.18
2018-04-14T13:56:46.039Z,40.64
2018-04-14T13:59:13.124Z,40.88
2018-04-14T14:01:39.504Z,40.87
2018-04-14T14:04:06.114Z,41.22
2018-04-14T14:06:32.688Z,41.39
2018-04-14T14:08:59.155Z,41.86
2018-04-14T14:11:25.565Z,41.20
2018-04-14T14:13:52.212Z,41.32
2018-04-14T14:16:18.780Z,41.21
2018-04-14T14:18:45.332Z,40.97
2018-04-14T14:21:11.799Z,40.95
2018-04-14T14:23:38.208Z,41.75
2018-04-14T14:26:04.838Z,40.91
2018-04-14T14:28:31.430Z,41.19
2018-04-14T14:30:57.850Z,42.26
2018-04-14T14:33:24.350Z,42.88
2018-04-14T14:35:50.915Z,43.36
2018-04-14T14:38:17.508Z,43.66
2018-04-14T14:40:44.081Z,44.12
2018-04-14T14:43:10.664Z,43.89
2018-04-14T14:45:37.144Z,44.39
2018-04-14T14:48:03.656Z,44.74
2018-04-14T14:50:30.167Z,44.62
2018-04-14T14:52:56.824Z,44.95
2018-04-14T14:55:23.915Z,44.70
2018-04-14T14:57:50.388Z,45.30
2018-04-14T15:00:17.078Z,45.46
2018-04-14T15:02:43.859Z,45.10
2018-04-14T15:05:10.425Z,45.22
2018-04-14T15:07:36.879Z,45.22
2018-04-14T15:10:03.570Z,45.31
2018-04-14T15:12:30.094Z,45.21
2018-04-14T15:14:56.632Z,45.36
2018-04-14T15:17:23.169Z,45.65
2018-04-14T15:19:49.742Z,45.36
2018-04-14T15:22:16.283Z,45.22
2018-04-14T15:24:42.821Z,46.09
2018-04-14T15:27:09.229Z,45.99
2018-04-14T15:29:36.345Z,45.69
2018-04-14T15:32:03.136Z,45.74
2018-04-14T15:34:29.626Z,45.47
2018-04-14T15:36:56.140Z,46.13
2018-04-14T15:39:22.554Z,46.26
2018-04-14T15:41:49.028Z,46.38
2018-04-14T15:44:15.485Z,46.05
2018-04-14T15:46:41.892Z,45.95
2018-04-14T15:49:08.512Z,46.26
2018-04-14T15:51:35.305Z,46.37
2018-04-14T15:54:01.841Z,46.53
2018-04-14T15:56:28.317Z,45.86
2018-04-14T15:58:54.769Z,47.00
2018-04-14T16:01:21.135Z,50.20
2018-04-14T16:03:47.695Z,51.22
2018-04-14T16:06:14.229Z,52.53
2018-04-14T16:08:40.736Z,54.05
2018-04-14T16:11:07.328Z,53.63
2018-04-14T16:13:33.852Z,54.05
2018-04-14T16:16:00.297Z,55.12
2018-04-14T16:18:26.660Z,57.39
2018-04-14T16:20:53.091Z,54.84
2018-04-14T16:23:19.516Z,51.31
2018-04-14T16:25:45.960Z,49.75
2018-04-14T16:28:12.484Z,49.68
2018-04-14T16:30:38.944Z,54.83
2018-04-14T16:33:05.345Z,56.67
2018-04-14T16:35:31.785Z,54.91
2018-04-14T16:37:58.254Z,57.75
2018-04-14T16:40:24.654Z,53.25
2018-04-14T16:42:51.153Z,53.75
2018-04-14T16:45:17.533Z,52.61
2018-04-14T16:47:44.008Z,56.35
2018-04-14T16:50:10.377Z,57.42
2018-04-14T16:52:36.721Z,59.55
2018-04-14T16:55:03.280Z,61.55
2018-04-14T16:57:29.822Z,62.02
2018-04-14T16:59:56.327Z,56.86
2018-04-14T17:02:22.720Z,52.94
2018-04-14T17:04:49.153Z,53.27
2018-04-14T17:07:15.609Z,53.32
2018-04-14T17:09:42.071Z,53.96
2018-04-14T17:12:08.518Z,54.92
2018-04-14T17:14:34.942Z,54.71
2018-04-14T17:17:01.485Z,54.74
2018-04-14T17:19:27.918Z,54.24
2018-04-14T17:21:54.354Z,54.34
2018-04-14T17:24:20.732Z,53.71
2018-04-14T17:26:47.133Z,54.17
2018-04-14T17:29:13.552Z,53.83
2018-04-14T17:31:39.960Z,53.59
2018-04-14T17:34:06.428Z,53.66
2018-04-14T17:36:32.979Z,52.50
2018-04-14T17:38:59.384Z,51.22
2018-04-14T17:41:25.805Z,51.90
2018-04-14T17:43:52.237Z,51.58
2018-04-14T17:46:18.648Z,51.35
2018-04-14T17:48:45.063Z,51.52
2018-04-14T17:51:11.589Z,51.52
2018-04-14T17:53:38.081Z,51.23
2018-04-14T17:56:04.499Z,51.21
2018-04-14T17:58:30.921Z,51.79
2018-04-14T18:00:57.377Z,51.79
2018-04-14T18:03:23.850Z,52.67
2018-04-14T18:05:50.220Z,53.48
2018-04-14T18:08:16.668Z,53.92
2018-04-14T18:10:43.070Z,54.65
2018-04-14T18:13:09.474Z,55.47
2018-04-14T18:15:35.924Z,56.00
2018-04-14T18:18:02.313Z,56.40
2018-04-14T18:20:28.733Z,57.37
2018-04-14T18:22:55.111Z,56.59
2018-04-14T18:25:21.559Z,56.39
2018-04-14T18:27:48.064Z,56.27
2018-04-14T18:30:14.525Z,56.22
2018-04-14T18:32:40.964Z,55.94
2018-04-14T18:35:07.394Z,55.84
2018-04-14T18:37:33.776Z,54.81
2018-04-14T18:40:00.240Z,55.08
2018-04-14T18:42:26.683Z,55.15
2018-04-14T18:44:53.199Z,53.44
2018-04-14T18:47:19.587Z,51.91
2018-04-14T18:49:46.032Z,50.82
2018-04-14T18:52:12.506Z,50.46
2018-04-14T18:54:38.932Z,50.42
2018-04-14T18:57:05.323Z,50.24
2018-04-14T18:59:31.719Z,50.26
2018-04-14T19:01:58.192Z,50.38
2018-04-14T19:04:24.620Z,50.25
2018-04-14T19:06:51.033Z,50.17
2018-04-14T19:09:17.453Z,49.98
2018-04-14T19:11:43.851Z,50.21
2018-04-14T19:14:10.345Z,50.17
2018-04-14T19:16:36.760Z,50.54
2018-04-14T19:19:03.160Z,50.80
2018-04-14T19:21:29.591Z,50.79
2018-04-14T19:23:56.012Z,50.96
2018-04-14T19:26:22.428Z,51.83
2018-04-14T19:28:48.836Z,51.66
2018-04-14T19:31:15.232Z,51.71
2018-04-14T19:33:41.720Z,51.69
2018-04-14T19:36:08.260Z,52.26
2018-04-14T19:38:34.692Z,52.12
2018-04-14T19:41:01.171Z,52.09
2018-04-14T19:43:27.680Z,52.37
2018-04-14T19:45:54.094Z,52.02
2018-04-14T19:48:20.499Z,52.36
2018-04-14T19:50:46.904Z,52.57
2018-04-14T19:53:13.434Z,52.40
2018-04-14T19:55:39.970Z,52.39
2018-04-14T19:58:06.413Z,52.35
2018-04-14T20:00:32.868Z,52.86
2018-04-14T20:02:59.303Z,53.26
2018-04-14T20:05:25.785Z,52.56
2018-04-14T20:07:52.252Z,52.50
2018-04-14T20:10:18.780Z,52.70
2018-04-14T20:12:45.357Z,52.71
2018-04-14T20:15:11.781Z,52.90
2018-04-14T20:17:38.173Z,53.08
2018-04-14T20:20:04.636Z,52.97
2018-04-14T20:22:31.096Z,52.95
2018-04-14T20:24:57.543Z,53.23
2018-04-14T20:27:23.971Z,53.20
2018-04-14T20:29:57.481Z,53.19
2018-04-14T20:32:23.992Z,53.40
2018-04-14T20:34:50.429Z,53.48
2018-04-14T20:37:16.840Z,53.45
2018-04-14T20:39:43.391Z,54.35
2018-04-14T20:42:09.780Z,54.53
2018-04-14T20:44:36.188Z,54.55
2018-04-14T20:47:02.652Z,54.82
2018-04-14T20:49:29.055Z,54.87
2018-04-14T20:51:55.552Z,54.95
2018-04-14T20:54:22.012Z,55.21
2018-04-14T20:56:48.413Z,54.75
2018-04-14T20:59:14.889Z,55.58
2018-04-14T21:01:41.300Z,55.91
2018-04-14T21:04:07.777Z,56.17
2018-04-14T21:06:34.263Z,56.04
2018-04-14T21:09:00.615Z,56.06
2018-04-14T21:11:27.089Z,56.56
2018-04-14T21:13:53.507Z,56.44
2018-04-14T21:16:19.972Z,57.09
2018-04-14T21:18:46.364Z,57.21
2018-04-14T21:21:12.803Z,57.22
2018-04-14T21:23:39.189Z,58.00
2018-04-14T21:26:05.648Z,58.08
2018-04-14T21:28:32.111Z,57.98
2018-04-14T21:30:58.511Z,58.61
2018-04-14T21:33:24.916Z,58.41
2018-04-14T21:35:51.393Z,58.78
2018-04-14T21:38:17.959Z,58.28
2018-04-14T21:40:44.414Z,58.21
2018-04-14T21:43:10.905Z,58.38
2018-04-14T21:45:37.353Z,57.99
2018-04-14T21:48:03.776Z,58.20
2018-04-14T21:50:30.238Z,57.68
2018-04-14T21:52:56.700Z,57.65
2018-04-14T21:55:23.197Z,57.71
2018-04-14T21:57:49.583Z,57.45
2018-04-14T22:00:16.092Z,57.52
2018-04-14T22:02:42.575Z,57.36
2018-04-14T22:05:09.045Z,57.28
2018-04-14T22:07:35.434Z,57.10
2018-04-14T22:10:01.963Z,57.55
2018-04-14T22:12:28.825Z,57.36
2018-04-14T22:14:55.333Z,57.64
2018-04-14T22:17:21.705Z,58.29
2018-04-14T22:19:48.127Z,57.86
2018-04-14T22:22:14.545Z,58.29
2018-04-14T22:24:41.037Z,58.38
2018-04-14T22:27:07.648Z,58.13
2018-04-14T22:29:34.147Z,58.32
2018-04-14T22:32:00.629Z,57.90
2018-04-14T22:34:27.124Z,57.41
2018-04-14T22:36:53.584Z,57.61
2018-04-14T22:39:20.054Z,57.42
2018-04-14T22:41:46.588Z,57.95
2018-04-14T22:44:13.094Z,58.14
2018-04-14T22:46:39.670Z,57.78
2018-04-14T22:49:06.076Z,57.66
2018-04-14T22:51:32.562Z,57.76
2018-04-14T22:53:59.043Z,57.58
2018-04-14T22:56:25.439Z,57.28
2018-04-14T22:58:51.952Z,57.73
2018-04-14T23:01:18.417Z,58.08
2018-04-14T23:03:44.841Z,58.38
2018-04-14T23:06:11.389Z,58.38
2018-04-14T23:08:37.864Z,58.06
2018-04-14T23:11:04.385Z,57.95
2018-04-14T23:13:30.800Z,57.87
2018-04-14T23:15:57.281Z,57.67
2018-04-14T23:18:23.836Z,58.08
2018-04-14T23:20:50.373Z,57.97
2018-04-14T23:23:16.877Z,58.17
2018-04-14T23:25:43.490Z,57.90
2018-04-14T23:28:09.987Z,57.65
2018-04-14T23:30:36.489Z,57.52
2018-04-14T23:33:02.980Z,57.53
2018-04-14T23:35:29.400Z,57.25
2018-04-14T23:37:55.888Z,57.06
2018-04-14T23:40:22.348Z,57.06
2018-04-14T23:42:48.851Z,57.16
2018-04-14T23:45:15.289Z,56.80
2018-04-14T23:47:41.676Z,56.75
2018-04-14T23:50:08.204Z,56.55
2018-04-14T23:52:34.636Z,56.19
2018-04-14T23:55:01.129Z,56.18
2018-04-14T23:57:27.627Z,56.13
2018-04-14T23:59:54.025Z,55.95
